createdAt,value
2023-03-24T00:01:44.977Z,63.10
2023-03-24T00:04:14.446Z,63.06
2023-03-24T00:06:43.660Z,63.47
2023-03-24T00:09:13.284Z,64.10
2023-03-24T00:11:41.965Z,64.20
2023-03-24T00:14:14.240Z,64.05
2023-03-24T00:16:43.088Z,64.73
2023-03-24T00:19:13.660Z,64.96
2023-03-24T00:21:42.613Z,65.01
2023-03-24T00:24:12.916Z,64.91
2023-03-24T00:26:41.526Z,64.79
2023-03-24T00:29:11.949Z,65.16
2023-03-24T00:31:40.658Z,65.19
2023-03-24T00:34:10.511Z,65.46
2023-03-24T00:36:39.613Z,65.50
2023-03-24T00:39:08.205Z,65.94
2023-03-24T00:41:47.763Z,66.53
2023-03-24T00:44:19.192Z,66.70
2023-03-24T00:46:55.870Z,66.69
2023-03-24T00:49:48.233Z,66.67
2023-03-24T00:52:21.388Z,66.28
2023-03-24T00:54:58.382Z,66.16
2023-03-24T00:57:30.126Z,65.98
2023-03-24T00:59:59.017Z,66.19
2023-03-24T01:02:28.977Z,66.42
2023-03-24T01:04:59.237Z,66.58
2023-03-24T01:07:28.468Z,66.89
2023-03-24T01:10:00.035Z,67.35
2023-03-24T01:12:33.677Z,67.28
2023-03-24T01:15:08.700Z,67.04
2023-03-24T01:17:38.556Z,66.71
2023-03-24T01:20:08.529Z,66.69
2023-03-24T01:22:37.902Z,66.52
2023-03-24T01:25:16.966Z,66.43
2023-03-24T01:27:46.743Z,66.78
2023-03-24T01:30:16.678Z,67.20
2023-03-24T01:32:47.751Z,67.77
2023-03-24T01:35:18.136Z,68.19
2023-03-24T01:37:47.044Z,68.25
2023-03-24T01:40:22.687Z,67.79
2023-03-24T01:42:51.403Z,67.75
2023-03-24T01:45:39.186Z,67.41
2023-03-24T01:48:11.243Z,67.87
2023-03-24T01:50:43.745Z,68.14
2023-03-24T01:53:12.448Z,68.11
2023-03-24T01:55:43.070Z,68.50
2023-03-24T01:58:12.573Z,68.94
2023-03-24T02:01:15.053Z,68.66
2023-03-24T02:03:49.593Z,68.54
2023-03-24T02:06:18.759Z,68.59
2023-03-24T02:08:56.160Z,68.72
2023-03-24T02:11:27.196Z,68.87
2023-03-24T02:14:03.560Z,68.93
2023-03-24T02:16:44.480Z,69.28
2023-03-24T02:19:27.759Z,69.33
2023-03-24T02:22:12.718Z,69.81
2023-03-24T02:24:55.286Z,69.70
2023-03-24T02:27:46.324Z,69.66
2023-03-24T02:30:32.919Z,70.15
2023-03-24T02:33:10.031Z,70.26
2023-03-24T02:36:09.633Z,70.41
2023-03-24T02:39:07.353Z,70.57
2023-03-24T02:41:44.143Z,70.89
2023-03-24T02:44:22.437Z,70.81
2023-03-24T02:46:57.340Z,70.87
2023-03-24T02:49:43.972Z,70.97
2023-03-24T02:52:21.311Z,71.29
2023-03-24T02:55:05.500Z,71.34
2023-03-24T02:57:36.306Z,71.77
2023-03-24T03:00:22.578Z,72.27
2023-03-24T03:03:11.821Z,72.23
2023-03-24T03:05:51.580Z,72.08
2023-03-24T03:08:21.746Z,72.10
2023-03-24T03:10:51.082Z,72.39
2023-03-24T03:13:28.029Z,72.75
2023-03-24T03:15:56.971Z,73.14
2023-03-24T03:18:29.441Z,73.45
2023-03-24T03:21:07.447Z,73.39
2023-03-24T03:23:37.788Z,73.59
2023-03-24T03:26:09.806Z,73.52
2023-03-24T03:28:50.274Z,73.75
2023-03-24T03:31:21.788Z,74.06
2023-03-24T03:33:53.783Z,74.18
2023-03-24T03:37:03.755Z,73.71
2023-03-24T03:39:38.697Z,73.78
2023-03-24T03:42:08.008Z,73.28
2023-03-24T03:44:36.744Z,73.12
2023-03-24T03:47:05.298Z,73.38
2023-03-24T03:49:40.676Z,73.69
2023-03-24T03:52:13.832Z,73.79
2023-03-24T03:54:43.275Z,73.60
2023-03-24T03:57:11.999Z,73.37
2023-03-24T03:59:52.316Z,73.54
2023-03-24T04:02:39.302Z,73.18
2023-03-24T04:05:29.348Z,73.26
2023-03-24T04:08:25.284Z,73.48
2023-03-24T04:11:21.890Z,73.50
2023-03-24T04:14:34.888Z,73.44
2023-03-24T04:18:21.116Z,73.12
2023-03-24T04:21:33.854Z,72.94
2023-03-24T04:24:18.704Z,73.15
2023-03-24T04:27:27.873Z,73.34
2023-03-24T04:30:06.418Z,73.01
2023-03-24T04:32:58.614Z,72.62
2023-03-24T04:35:42.632Z,72.87
2023-03-24T04:38:26.379Z,72.36
2023-03-24T04:41:06.163Z,72.42
2023-03-24T04:43:38.939Z,72.65
2023-03-24T04:46:09.587Z,72.13
2023-03-24T04:48:51.433Z,72.24
2023-03-24T04:51:25.403Z,71.90
2023-03-24T04:54:03.346Z,71.53
2023-03-24T04:56:38.736Z,71.01
2023-03-24T04:59:19.758Z,71.38
2023-03-24T05:01:51.187Z,71.12
2023-03-24T05:04:37.330Z,71.27
2023-03-24T05:07:15.532Z,71.01
2023-03-24T05:09:44.397Z,70.86
2023-03-24T05:12:18.822Z,70.44
2023-03-24T05:15:09.251Z,70.36
2023-03-24T05:17:37.915Z,70.42
2023-03-24T05:20:11.532Z,70.44
2023-03-24T05:22:41.311Z,70.35
2023-03-24T05:25:09.800Z,70.03
2023-03-24T05:27:38.419Z,69.66
2023-03-24T05:30:22.649Z,69.17
2023-03-24T05:32:53.913Z,68.88
2023-03-24T05:35:22.477Z,68.97
2023-03-24T05:37:51.259Z,69.28
2023-03-24T05:40:19.542Z,69.16
2023-03-24T05:43:12.518Z,68.47
2023-03-24T05:45:46.070Z,68.22
2023-03-24T05:48:24.068Z,67.22
2023-03-24T05:51:16.833Z,65.51
2023-03-24T05:53:46.136Z,64.61
2023-03-24T05:56:24.316Z,62.80
2023-03-24T05:59:02.870Z,59.86
2023-03-24T06:02:06.723Z,56.44
2023-03-24T06:04:49.621Z,54.17
2023-03-24T06:07:26.805Z,52.40
2023-03-24T06:10:04.964Z,51.58
2023-03-24T06:12:45.459Z,51.75
2023-03-24T06:15:17.796Z,51.30
2023-03-24T06:17:54.906Z,51.75
2023-03-24T06:20:41.566Z,52.54
2023-03-24T06:23:19.851Z,53.14
2023-03-24T06:26:11.715Z,52.97
2023-03-24T06:29:07.179Z,51.57
2023-03-24T06:31:39.399Z,50.81
2023-03-24T06:34:16.552Z,49.57
2023-03-24T06:36:49.284Z,48.37
2023-03-24T06:39:21.253Z,46.37
2023-03-24T06:41:49.755Z,44.02
2023-03-24T06:44:18.376Z,42.81
2023-03-24T06:46:47.426Z,42.21
2023-03-24T06:49:15.992Z,41.27
2023-03-24T06:51:44.220Z,40.15
2023-03-24T06:54:13.052Z,39.21
2023-03-24T06:56:44.103Z,38.38
2023-03-24T06:59:13.225Z,38.86
2023-03-24T07:01:41.526Z,39.39
2023-03-24T07:04:26.219Z,39.44
2023-03-24T07:09:47.722Z,40.06
2023-03-24T07:12:16.754Z,40.20
2023-03-24T07:14:45.367Z,40.83
2023-03-24T07:17:21.136Z,41.14
2023-03-24T07:20:13.183Z,41.82
2023-03-24T07:22:57.474Z,42.79
2023-03-24T07:25:47.578Z,43.57
2023-03-24T07:28:41.407Z,44.75
2023-03-24T07:31:14.115Z,44.67
2023-03-24T07:33:48.911Z,45.08
2023-03-24T07:36:17.327Z,45.67
2023-03-24T07:38:45.526Z,45.34
2023-03-24T07:41:18.617Z,45.62
2023-03-24T07:43:52.139Z,45.74
2023-03-24T07:46:25.754Z,45.63
2023-03-24T07:49:03.191Z,46.00
2023-03-24T07:51:40.108Z,46.35
2023-03-24T07:54:25.821Z,46.65
2023-03-24T07:56:55.127Z,46.34
2023-03-24T07:59:26.735Z,46.63
2023-03-24T08:02:19.758Z,46.34
2023-03-24T08:04:59.987Z,45.56
2023-03-24T08:07:44.841Z,45.08
2023-03-24T08:10:13.956Z,44.76
2023-03-24T08:12:45.500Z,43.34
2023-03-24T08:15:14.800Z,43.01
2023-03-24T08:17:43.474Z,43.31
2023-03-24T08:20:31.470Z,42.20
2023-03-24T08:23:01.056Z,41.66
2023-03-24T08:25:29.415Z,41.55
2023-03-24T08:28:00.055Z,40.53
2023-03-24T08:30:29.709Z,39.54
2023-03-24T08:33:00.711Z,39.23
2023-03-24T08:35:33.678Z,38.23
2023-03-24T08:38:06.147Z,38.50
2023-03-24T08:40:37.679Z,38.54
2023-03-24T08:43:08.790Z,38.48
2023-03-24T08:45:37.093Z,37.88
2023-03-24T08:48:06.531Z,37.41
2023-03-24T08:50:36.874Z,37.09
2023-03-24T08:53:05.079Z,37.43
2023-03-24T08:55:33.545Z,37.90
2023-03-24T08:58:01.786Z,38.10
2023-03-24T09:00:30.435Z,38.25
2023-03-24T09:03:10.393Z,37.85
2023-03-24T09:05:44.476Z,37.10
2023-03-24T09:08:14.310Z,37.12
2023-03-24T09:10:44.837Z,36.64
2023-03-24T09:13:14.336Z,37.06
2023-03-24T09:15:52.709Z,37.49
2023-03-24T09:18:25.940Z,37.47
2023-03-24T09:20:54.084Z,37.77
2023-03-24T09:23:22.690Z,37.75
2023-03-24T09:25:55.425Z,38.50
2023-03-24T09:28:24.368Z,38.27
2023-03-24T09:30:57.362Z,38.17
2023-03-24T09:33:25.862Z,37.93
2023-03-24T09:35:56.507Z,37.86
2023-03-24T09:38:26.926Z,37.95
2023-03-24T09:41:00.859Z,37.94
2023-03-24T09:43:39.818Z,37.52
2023-03-24T09:46:13.713Z,38.05
2023-03-24T09:48:56.830Z,38.58
2023-03-24T09:51:33.048Z,38.66
2023-03-24T09:54:22.851Z,38.78
2023-03-24T09:56:52.067Z,38.50
2023-03-24T09:59:34.452Z,38.37
2023-03-24T10:02:04.475Z,38.53
2023-03-24T10:04:33.473Z,38.48
2023-03-24T10:07:13.658Z,38.18
2023-03-24T10:09:42.309Z,38.48
2023-03-24T10:12:27.221Z,38.09
2023-03-24T10:15:01.747Z,38.31
2023-03-24T10:17:56.468Z,38.48
2023-03-24T10:20:32.136Z,38.13
2023-03-24T10:23:20.078Z,37.28
2023-03-24T10:25:55.625Z,36.91
2023-03-24T10:28:28.398Z,37.39
2023-03-24T10:30:57.266Z,37.04
2023-03-24T10:33:25.629Z,37.04
2023-03-24T10:36:07.953Z,37.07
2023-03-24T10:38:45.681Z,37.36
2023-03-24T10:41:25.145Z,37.40
2023-03-24T10:43:54.796Z,37.52
2023-03-24T10:46:31.507Z,37.64
2023-03-24T10:49:06.205Z,37.99
2023-03-24T10:51:37.781Z,37.07
2023-03-24T10:54:15.460Z,37.95
2023-03-24T10:56:51.218Z,38.05
2023-03-24T10:59:25.672Z,38.10
2023-03-24T11:01:59.609Z,38.19
2023-03-24T11:04:28.568Z,37.97
2023-03-24T11:07:04.962Z,38.53
2023-03-24T11:09:41.395Z,38.41
2023-03-24T11:12:31.959Z,38.36
2023-03-24T11:15:23.731Z,38.15
2023-03-24T11:18:08.434Z,37.93
2023-03-24T11:20:41.819Z,37.69
2023-03-24T11:23:14.816Z,37.57
2023-03-24T11:25:45.489Z,38.17
2023-03-24T11:28:18.112Z,38.42
2023-03-24T11:30:50.415Z,38.25
2023-03-24T11:33:18.903Z,37.81
2023-03-24T11:35:59.056Z,38.06
2023-03-24T11:38:33.967Z,38.42
2023-03-24T11:41:05.078Z,38.28
2023-03-24T11:43:35.569Z,38.25
2023-03-24T11:46:18.001Z,38.73
2023-03-24T11:48:56.571Z,38.19
2023-03-24T11:51:33.020Z,38.10
2023-03-24T11:54:16.698Z,38.58
2023-03-24T11:57:18.144Z,38.58
2023-03-24T11:59:58.309Z,38.23
2023-03-24T12:02:39.478Z,38.67
2023-03-24T12:05:35.318Z,38.81
2023-03-24T12:08:26.582Z,39.15
2023-03-24T12:11:40.248Z,39.08
2023-03-24T12:14:08.888Z,38.59
2023-03-24T12:16:51.956Z,38.86
2023-03-24T12:19:35.659Z,38.59
2023-03-24T12:22:10.585Z,39.02
2023-03-24T12:24:58.357Z,39.33
2023-03-24T12:27:55.045Z,39.46
2023-03-24T12:30:42.091Z,39.03
2023-03-24T12:33:16.789Z,38.85
2023-03-24T12:36:03.877Z,38.07
2023-03-24T12:39:01.449Z,38.68
2023-03-24T12:42:08.930Z,38.71
2023-03-24T12:45:04.890Z,38.78
2023-03-24T12:47:57.944Z,38.59
2023-03-24T12:51:01.572Z,38.51
2023-03-24T12:53:33.298Z,38.92
2023-03-24T12:56:26.179Z,39.05
2023-03-24T12:59:03.114Z,38.73
2023-03-24T13:01:43.849Z,38.86
2023-03-24T13:04:21.059Z,38.95
2023-03-24T13:06:58.687Z,38.83
2023-03-24T13:09:44.160Z,38.87
2023-03-24T13:12:22.602Z,38.70
2023-03-24T13:15:13.916Z,38.91
2023-03-24T13:18:09.148Z,38.60
2023-03-24T13:20:55.576Z,39.04
2023-03-24T13:23:42.553Z,39.29
2023-03-24T13:26:16.300Z,39.73
2023-03-24T13:29:03.946Z,39.57
2023-03-24T13:31:43.010Z,39.72
2023-03-24T13:34:28.973Z,40.12
2023-03-24T13:37:24.688Z,39.76
2023-03-24T13:39:56.395Z,39.80
2023-03-24T13:42:31.450Z,39.81
2023-03-24T13:45:01.299Z,39.85
2023-03-24T13:47:50.821Z,40.03
2023-03-24T13:50:19.526Z,40.31
2023-03-24T13:52:49.209Z,40.32
2023-03-24T13:55:22.884Z,40.41
2023-03-24T13:57:57.343Z,40.42
2023-03-24T14:00:27.260Z,40.41
2023-03-24T14:03:21.079Z,40.64
2023-03-24T14:06:09.044Z,40.51
2023-03-24T14:08:50.740Z,40.75
2023-03-24T14:11:31.374Z,40.59
2023-03-24T14:14:06.870Z,40.69
2023-03-24T14:17:14.098Z,40.87
2023-03-24T14:19:42.626Z,41.08
2023-03-24T14:22:13.946Z,41.55
2023-03-24T14:24:46.343Z,41.47
2023-03-24T14:27:37.217Z,41.55
2023-03-24T14:30:22.133Z,41.64
2023-03-24T14:33:02.222Z,41.81
2023-03-24T14:35:37.438Z,41.82
2023-03-24T14:38:27.345Z,42.00
2023-03-24T14:40:59.888Z,41.94
2023-03-24T14:43:29.639Z,42.31
2023-03-24T14:46:03.350Z,42.41
2023-03-24T14:49:05.521Z,42.45
2023-03-24T14:51:57.616Z,42.37
2023-03-24T14:54:38.280Z,42.37
2023-03-24T14:57:06.693Z,42.69
2023-03-24T14:59:52.952Z,42.81
2023-03-24T15:02:28.606Z,43.01
2023-03-24T15:05:23.536Z,43.24
2023-03-24T15:08:21.791Z,43.38
2023-03-24T15:10:58.429Z,43.46
2023-03-24T15:13:34.482Z,43.62
2023-03-24T15:16:12.746Z,43.72
2023-03-24T15:19:05.194Z,43.66
2023-03-24T15:21:47.232Z,43.76
2023-03-24T15:24:21.666Z,44.10
2023-03-24T15:26:51.600Z,44.08
2023-03-24T15:29:20.043Z,44.14
2023-03-24T15:31:49.729Z,44.34
2023-03-24T15:34:35.883Z,44.43
2023-03-24T15:37:09.757Z,44.57
2023-03-24T15:39:39.734Z,44.66
2023-03-24T15:42:09.702Z,44.76
2023-03-24T15:44:39.338Z,45.02
2023-03-24T15:47:16.606Z,45.00
2023-03-24T15:49:57.110Z,44.98
2023-03-24T15:52:31.584Z,45.21
2023-03-24T15:55:02.058Z,45.35
2023-03-24T15:57:40.801Z,45.39
2023-03-24T16:00:24.162Z,45.41
2023-03-24T16:02:55.154Z,45.60
2023-03-24T16:05:31.129Z,45.75
2023-03-24T16:08:05.918Z,45.91
2023-03-24T16:10:43.105Z,45.88
2023-03-24T16:13:19.616Z,46.14
2023-03-24T16:15:58.640Z,46.25
2023-03-24T16:18:32.404Z,46.31
2023-03-24T16:21:02.421Z,46.45
2023-03-24T16:23:32.628Z,46.62
2023-03-24T16:26:01.299Z,46.66
2023-03-24T16:28:30.809Z,46.85
2023-03-24T16:31:04.992Z,46.89
2023-03-24T16:33:35.820Z,47.16
2023-03-24T16:36:09.605Z,47.40
2023-03-24T16:38:39.591Z,47.69
2023-03-24T16:41:11.207Z,47.70
2023-03-24T16:43:41.883Z,47.85
2023-03-24T16:46:18.008Z,48.07
2023-03-24T16:48:49.807Z,48.42
2023-03-24T16:51:18.715Z,48.48
2023-03-24T16:53:48.314Z,48.97
2023-03-24T16:56:18.233Z,49.13
2023-03-24T16:58:48.202Z,49.26
2023-03-24T17:01:26.695Z,49.56
2023-03-24T17:03:56.866Z,49.68
2023-03-24T17:06:25.795Z,49.88
2023-03-24T17:08:55.396Z,50.10
2023-03-24T17:11:33.920Z,50.24
2023-03-24T17:14:12.306Z,50.50
2023-03-24T17:16:45.320Z,50.46
2023-03-24T17:19:16.638Z,50.82
2023-03-24T17:21:53.088Z,51.08
2023-03-24T17:24:21.727Z,51.24
2023-03-24T17:26:49.855Z,51.53
2023-03-24T17:29:18.384Z,51.69
2023-03-24T17:31:46.707Z,51.78
2023-03-24T17:36:50.103Z,52.04
2023-03-24T17:39:18.887Z,52.02
2023-03-24T17:41:49.629Z,52.08
2023-03-24T17:44:19.235Z,52.21
2023-03-24T17:46:47.481Z,52.33
2023-03-24T17:49:15.990Z,52.57
2023-03-24T17:51:44.172Z,52.49
2023-03-24T17:54:13.924Z,52.79
2023-03-24T17:56:42.292Z,53.23
2023-03-24T17:59:11.362Z,53.46
2023-03-24T18:01:40.620Z,53.48
2023-03-24T18:04:09.242Z,53.59
2023-03-24T18:06:42.080Z,53.92
2023-03-24T18:09:10.683Z,54.16
2023-03-24T18:11:39.008Z,54.17
2023-03-24T18:14:09.243Z,54.45
2023-03-24T18:16:39.508Z,54.44
2023-03-24T18:19:07.851Z,54.60
2023-03-24T18:21:39.843Z,55.03
2023-03-24T18:24:08.924Z,55.13
2023-03-24T18:26:37.302Z,55.21
2023-03-24T18:29:06.431Z,55.27
2023-03-24T18:31:35.708Z,55.36
2023-03-24T18:34:04.267Z,55.31
2023-03-24T18:36:34.121Z,55.66
2023-03-24T18:39:07.092Z,55.64
2023-03-24T18:41:39.268Z,55.81
2023-03-24T18:44:09.776Z,55.88
2023-03-24T18:46:39.574Z,56.05
2023-03-24T18:49:13.354Z,56.05
2023-03-24T18:51:42.314Z,56.41
2023-03-24T18:54:12.372Z,56.41
2023-03-24T18:56:40.722Z,56.58
2023-03-24T18:59:11.985Z,56.98
2023-03-24T19:01:41.631Z,57.30
2023-03-24T19:04:09.963Z,57.33
2023-03-24T19:06:42.515Z,57.47
2023-03-24T19:09:15.017Z,57.53
2023-03-24T19:11:45.189Z,57.49
2023-03-24T19:14:14.238Z,57.63
2023-03-24T19:16:45.690Z,58.21
2023-03-24T19:19:14.290Z,58.33
2023-03-24T19:21:43.074Z,58.52
2023-03-24T19:24:11.304Z,58.45
2023-03-24T19:26:40.565Z,58.67
2023-03-24T19:29:09.555Z,58.76
2023-03-24T19:31:38.244Z,58.64
2023-03-24T19:34:06.465Z,58.65
2023-03-24T19:36:35.424Z,58.85
2023-03-24T19:39:04.676Z,58.93
2023-03-24T19:41:33.138Z,58.96
2023-03-24T19:44:01.437Z,58.95
2023-03-24T19:46:30.641Z,59.05
2023-03-24T19:49:00.000Z,59.05
2023-03-24T19:51:28.704Z,59.25
2023-03-24T19:53:57.073Z,59.64
2023-03-24T19:56:25.877Z,60.01
2023-03-24T19:58:54.028Z,60.18
2023-03-24T20:01:23.936Z,60.47
2023-03-24T20:03:52.383Z,61.10
2023-03-24T20:06:21.855Z,61.54
2023-03-24T20:08:50.446Z,62.09
2023-03-24T20:11:18.532Z,62.83
2023-03-24T20:13:48.440Z,62.94
2023-03-24T20:16:17.571Z,63.21
2023-03-24T20:18:45.707Z,63.40
2023-03-24T20:21:18.518Z,63.62
2023-03-24T20:23:46.781Z,64.04
2023-03-24T20:26:19.563Z,64.45
2023-03-24T20:28:48.036Z,64.62
2023-03-24T20:31:16.615Z,65.01
2023-03-24T20:33:46.452Z,65.40
2023-03-24T20:36:15.729Z,65.80
2023-03-24T20:38:44.047Z,65.91
2023-03-24T20:41:12.539Z,66.12
2023-03-24T20:43:41.214Z,66.21
2023-03-24T20:46:11.820Z,66.21
2023-03-24T20:48:40.149Z,66.37
2023-03-24T20:51:08.622Z,66.40
2023-03-24T20:53:37.144Z,66.86
2023-03-24T20:56:08.018Z,67.11
2023-03-24T20:58:38.004Z,67.56
2023-03-24T21:01:08.215Z,67.36
2023-03-24T21:03:36.802Z,67.43
2023-03-24T21:06:06.209Z,67.38
2023-03-24T21:08:34.386Z,67.49
2023-03-24T21:11:02.825Z,67.68
2023-03-24T21:16:08.092Z,68.55
2023-03-24T21:18:44.037Z,69.13
2023-03-24T21:21:13.160Z,69.04
2023-03-24T21:23:42.120Z,69.00
2023-03-24T21:26:15.716Z,69.04
2023-03-24T21:28:44.976Z,69.27
2023-03-24T21:31:18.893Z,69.47
2023-03-24T21:33:47.061Z,69.66
2023-03-24T21:36:15.838Z,69.82
2023-03-24T21:38:44.738Z,70.01
2023-03-24T21:41:12.997Z,70.03
2023-03-24T21:43:42.175Z,70.00
2023-03-24T21:46:15.072Z,70.05
2023-03-24T21:48:52.688Z,70.44
2023-03-24T21:51:30.852Z,70.66
2023-03-24T21:54:06.629Z,70.89
2023-03-24T21:56:38.245Z,71.12
2023-03-24T21:59:07.239Z,71.28
2023-03-24T22:01:36.405Z,71.41
2023-03-24T22:04:06.007Z,71.41
2023-03-24T22:06:38.921Z,71.60
2023-03-24T22:09:08.373Z,71.76
2023-03-24T22:11:36.937Z,72.24
2023-03-24T22:14:10.548Z,72.56
2023-03-24T22:16:40.593Z,72.67
2023-03-24T22:19:09.426Z,72.83
2023-03-24T22:21:39.757Z,72.95
2023-03-24T22:24:08.558Z,72.90
2023-03-24T22:26:36.931Z,72.85
2023-03-24T22:29:05.416Z,72.96
2023-03-24T22:31:34.331Z,73.21
2023-03-24T22:34:02.583Z,73.31
2023-03-24T22:36:32.501Z,73.56
2023-03-24T22:39:00.776Z,73.58
2023-03-24T22:41:29.033Z,73.30
2023-03-24T22:43:58.074Z,73.49
2023-03-24T22:46:32.244Z,73.57
2023-03-24T22:49:00.347Z,73.60
2023-03-24T22:51:30.597Z,74.08
2023-03-24T22:53:58.857Z,74.14
2023-03-24T22:56:27.167Z,74.12
2023-03-24T22:58:55.787Z,74.27
2023-03-24T23:01:24.287Z,74.18
2023-03-24T23:03:52.820Z,74.24
2023-03-24T23:06:21.604Z,74.35
2023-03-24T23:08:53.712Z,74.74
2023-03-24T23:11:22.083Z,74.72
2023-03-24T23:13:53.249Z,74.71
2023-03-24T23:16:21.424Z,74.67
2023-03-24T23:18:52.422Z,74.58
2023-03-24T23:21:20.805Z,74.58
2023-03-24T23:23:48.883Z,74.61
2023-03-24T23:26:26.548Z,75.03
2023-03-24T23:28:55.376Z,75.17
2023-03-24T23:31:27.406Z,75.02
2023-03-24T23:33:57.906Z,74.73
2023-03-24T23:36:28.913Z,74.50
2023-03-24T23:38:59.956Z,74.78
2023-03-24T23:41:28.240Z,75.24
2023-03-24T23:43:56.419Z,75.39
2023-03-24T23:46:24.867Z,75.59
2023-03-24T23:48:53.497Z,75.96
2023-03-24T23:51:24.736Z,75.56
2023-03-24T23:53:53.026Z,75.45
2023-03-24T23:56:23.004Z,75.59
2023-03-24T23:58:51.251Z,75.69
